sensor_id;sensor_type;location;lat;lon;timestamp;P1;durP1;ratioP1;P2;durP2;ratioP2
43998;SDS011;51319;52.162;5.302;2023-08-07T00:00:04;14.27;;;2.75;;
43998;SDS011;51319;52.162;5.302;2023-08-07T00:02:35;21.42;;;2.95;;
43998;SDS011;51319;52.162;5.302;2023-08-07T00:05:02;13.60;;;2.90;;
43998;SDS011;51319;52.162;5.302;2023-08-07T00:07:30;22.48;;;3.35;;
43998;SDS011;51319;52.162;5.302;2023-08-07T00:09:57;17.83;;;3.25;;
43998;SDS011;51319;52.162;5.302;2023-08-07T00:12:24;12.50;;;2.90;;
43998;SDS011;51319;52.162;5.302;2023-08-07T00:14:52;15.20;;;3.67;;
43998;SDS011;51319;52.162;5.302;2023-08-07T00:17:19;17.48;;;3.15;;
43998;SDS011;51319;52.162;5.302;2023-08-07T00:19:47;19.45;;;3.58;;
43998;SDS011;51319;52.162;5.302;2023-08-07T00:22:14;18.02;;;4.28;;
43998;SDS011;51319;52.162;5.302;2023-08-07T00:24:41;19.60;;;3.40;;
43998;SDS011;51319;52.162;5.302;2023-08-07T00:27:08;15.48;;;3.50;;
43998;SDS011;51319;52.162;5.302;2023-08-07T00:29:38;17.35;;;3.97;;
43998;SDS011;51319;52.162;5.302;2023-08-07T00:32:06;17.63;;;3.53;;
43998;SDS011;51319;52.162;5.302;2023-08-07T00:34:33;21.20;;;3.40;;
43998;SDS011;51319;52.162;5.302;2023-08-07T00:37:01;18.17;;;3.17;;
43998;SDS011;51319;52.162;5.302;2023-08-07T00:39:28;15.57;;;2.70;;
43998;SDS011;51319;52.162;5.302;2023-08-07T00:41:55;13.98;;;3.13;;
43998;SDS011;51319;52.162;5.302;2023-08-07T00:44:22;14.68;;;2.70;;
43998;SDS011;51319;52.162;5.302;2023-08-07T00:46:51;13.82;;;2.80;;
43998;SDS011;51319;52.162;5.302;2023-08-07T00:49:18;9.93;;;2.88;;
43998;SDS011;51319;52.162;5.302;2023-08-07T00:51:46;17.45;;;3.05;;
43998;SDS011;51319;52.162;5.302;2023-08-07T00:54:15;15.88;;;4.03;;
43998;SDS011;51319;52.162;5.302;2023-08-07T00:56:44;21.58;;;3.97;;
43998;SDS011;51319;52.162;5.302;2023-08-07T00:59:12;16.67;;;3.90;;
43998;SDS011;51319;52.162;5.302;2023-08-07T01:01:43;19.48;;;3.60;;
43998;SDS011;51319;52.162;5.302;2023-08-07T01:04:11;21.38;;;3.83;;
43998;SDS011;51319;52.162;5.302;2023-08-07T01:06:38;24.23;;;4.25;;
43998;SDS011;51319;52.162;5.302;2023-08-07T01:09:09;23.67;;;5.35;;
43998;SDS011;51319;52.162;5.302;2023-08-07T01:11:48;25.02;;;4.13;;
43998;SDS011;51319;52.162;5.302;2023-08-07T01:14:37;22.13;;;4.43;;
43998;SDS011;51319;52.162;5.302;2023-08-07T01:17:06;19.83;;;3.83;;
43998;SDS011;51319;52.162;5.302;2023-08-07T01:19:37;24.58;;;4.43;;
43998;SDS011;51319;52.162;5.302;2023-08-07T01:24:39;16.27;;;3.63;;
43998;SDS011;51319;52.162;5.302;2023-08-07T01:35:11;24.65;;;4.00;;
43998;SDS011;51319;52.162;5.302;2023-08-07T01:37:39;18.08;;;4.35;;
43998;SDS011;51319;52.162;5.302;2023-08-07T01:40:08;21.73;;;3.42;;
43998;SDS011;51319;52.162;5.302;2023-08-07T01:42:37;23.13;;;3.72;;
43998;SDS011;51319;52.162;5.302;2023-08-07T01:45:05;25.60;;;3.55;;
43998;SDS011;51319;52.162;5.302;2023-08-07T01:47:32;18.10;;;4.15;;
43998;SDS011;51319;52.162;5.302;2023-08-07T01:50:00;21.00;;;3.78;;
43998;SDS011;51319;52.162;5.302;2023-08-07T01:52:27;28.40;;;4.53;;
43998;SDS011;51319;52.162;5.302;2023-08-07T01:54:56;19.38;;;5.10;;
43998;SDS011;51319;52.162;5.302;2023-08-07T01:57:23;18.70;;;3.55;;
43998;SDS011;51319;52.162;5.302;2023-08-07T01:59:50;17.35;;;3.78;;
43998;SDS011;51319;52.162;5.302;2023-08-07T02:02:17;18.92;;;3.83;;
43998;SDS011;51319;52.162;5.302;2023-08-07T02:04:44;22.65;;;4.40;;
43998;SDS011;51319;52.162;5.302;2023-08-07T02:07:11;23.17;;;5.13;;
43998;SDS011;51319;52.162;5.302;2023-08-07T02:09:38;19.02;;;3.35;;
43998;SDS011;51319;52.162;5.302;2023-08-07T02:12:05;17.60;;;3.75;;
43998;SDS011;51319;52.162;5.302;2023-08-07T02:14:34;11.75;;;3.00;;
43998;SDS011;51319;52.162;5.302;2023-08-07T02:17:01;17.50;;;3.13;;
43998;SDS011;51319;52.162;5.302;2023-08-07T02:19:29;19.77;;;3.75;;
43998;SDS011;51319;52.162;5.302;2023-08-07T02:21:56;18.38;;;3.08;;
43998;SDS011;51319;52.162;5.302;2023-08-07T02:24:23;25.35;;;3.80;;
43998;SDS011;51319;52.162;5.302;2023-08-07T02:26:50;26.52;;;3.50;;
43998;SDS011;51319;52.162;5.302;2023-08-07T02:29:18;14.32;;;3.42;;
43998;SDS011;51319;52.162;5.302;2023-08-07T02:31:44;21.90;;;3.70;;
43998;SDS011;51319;52.162;5.302;2023-08-07T02:34:11;10.75;;;3.10;;
43998;SDS011;51319;52.162;5.302;2023-08-07T02:36:38;18.30;;;3.42;;
43998;SDS011;51319;52.162;5.302;2023-08-07T02:39:06;17.70;;;4.18;;
43998;SDS011;51319;52.162;5.302;2023-08-07T02:41:33;16.45;;;4.00;;
43998;SDS011;51319;52.162;5.302;2023-08-07T02:44:00;13.77;;;3.28;;
43998;SDS011;51319;52.162;5.302;2023-08-07T02:46:28;23.25;;;4.03;;
43998;SDS011;51319;52.162;5.302;2023-08-07T02:48:55;22.27;;;4.50;;
43998;SDS011;51319;52.162;5.302;2023-08-07T02:51:22;21.40;;;4.05;;
43998;SDS011;51319;52.162;5.302;2023-08-07T02:53:49;21.50;;;4.03;;
43998;SDS011;51319;52.162;5.302;2023-08-07T02:56:16;19.80;;;4.00;;
43998;SDS011;51319;52.162;5.302;2023-08-07T02:58:43;28.73;;;4.78;;
43998;SDS011;51319;52.162;5.302;2023-08-07T03:01:10;15.85;;;3.33;;
43998;SDS011;51319;52.162;5.302;2023-08-07T03:03:38;17.05;;;3.65;;
43998;SDS011;51319;52.162;5.302;2023-08-07T03:06:05;14.23;;;3.78;;
43998;SDS011;51319;52.162;5.302;2023-08-07T03:08:32;17.40;;;3.22;;
43998;SDS011;51319;52.162;5.302;2023-08-07T03:10:59;15.32;;;3.28;;
43998;SDS011;51319;52.162;5.302;2023-08-07T03:13:26;13.25;;;2.78;;
43998;SDS011;51319;52.162;5.302;2023-08-07T03:15:59;9.50;;;2.70;;
43998;SDS011;51319;52.162;5.302;2023-08-07T03:18:31;11.73;;;2.25;;
43998;SDS011;51319;52.162;5.302;2023-08-07T03:20:58;14.48;;;2.90;;
43998;SDS011;51319;52.162;5.302;2023-08-07T03:23:26;14.57;;;2.60;;
43998;SDS011;51319;52.162;5.302;2023-08-07T03:26:06;12.02;;;2.58;;
43998;SDS011;51319;52.162;5.302;2023-08-07T03:28:37;10.07;;;2.72;;
43998;SDS011;51319;52.162;5.302;2023-08-07T03:31:05;18.08;;;3.25;;
43998;SDS011;51319;52.162;5.302;2023-08-07T03:33:32;13.93;;;2.67;;
43998;SDS011;51319;52.162;5.302;2023-08-07T03:35:59;13.82;;;2.95;;
43998;SDS011;51319;52.162;5.302;2023-08-07T03:38:26;10.98;;;3.00;;
43998;SDS011;51319;52.162;5.302;2023-08-07T03:40:53;10.73;;;2.63;;
43998;SDS011;51319;52.162;5.302;2023-08-07T03:43:20;13.88;;;2.92;;
43998;SDS011;51319;52.162;5.302;2023-08-07T03:45:47;12.65;;;2.67;;
43998;SDS011;51319;52.162;5.302;2023-08-07T03:48:20;15.82;;;2.70;;
43998;SDS011;51319;52.162;5.302;2023-08-07T03:50:47;14.93;;;2.97;;
43998;SDS011;51319;52.162;5.302;2023-08-07T03:53:14;20.33;;;4.20;;
43998;SDS011;51319;52.162;5.302;2023-08-07T03:55:42;11.27;;;3.17;;
43998;SDS011;51319;52.162;5.302;2023-08-07T03:58:09;14.15;;;3.22;;
43998;SDS011;51319;52.162;5.302;2023-08-07T04:00:36;13.00;;;2.72;;
43998;SDS011;51319;52.162;5.302;2023-08-07T04:03:03;13.10;;;2.95;;
43998;SDS011;51319;52.162;5.302;2023-08-07T04:05:33;15.70;;;3.30;;
43998;SDS011;51319;52.162;5.302;2023-08-07T04:08:00;18.88;;;3.63;;
43998;SDS011;51319;52.162;5.302;2023-08-07T04:10:27;19.95;;;3.67;;
43998;SDS011;51319;52.162;5.302;2023-08-07T04:12:56;12.95;;;3.40;;
43998;SDS011;51319;52.162;5.302;2023-08-07T04:15:25;16.83;;;3.53;;
43998;SDS011;51319;52.162;5.302;2023-08-07T04:17:53;17.58;;;3.70;;
43998;SDS011;51319;52.162;5.302;2023-08-07T04:20:20;14.38;;;3.28;;
43998;SDS011;51319;52.162;5.302;2023-08-07T04:22:47;17.60;;;3.97;;
43998;SDS011;51319;52.162;5.302;2023-08-07T04:25:14;12.50;;;3.80;;
43998;SDS011;51319;52.162;5.302;2023-08-07T04:27:40;19.42;;;4.13;;
43998;SDS011;51319;52.162;5.302;2023-08-07T04:30:09;13.82;;;3.05;;
43998;SDS011;51319;52.162;5.302;2023-08-07T04:32:36;22.83;;;3.85;;
43998;SDS011;51319;52.162;5.302;2023-08-07T04:35:03;20.33;;;4.40;;
43998;SDS011;51319;52.162;5.302;2023-08-07T04:37:31;18.27;;;3.67;;
43998;SDS011;51319;52.162;5.302;2023-08-07T04:39:58;18.58;;;3.60;;
43998;SDS011;51319;52.162;5.302;2023-08-07T04:42:27;22.92;;;4.05;;
43998;SDS011;51319;52.162;5.302;2023-08-07T04:44:54;11.90;;;2.97;;
43998;SDS011;51319;52.162;5.302;2023-08-07T04:47:21;17.17;;;3.65;;
43998;SDS011;51319;52.162;5.302;2023-08-07T04:49:50;19.17;;;3.75;;
43998;SDS011;51319;52.162;5.302;2023-08-07T04:52:18;22.60;;;4.55;;
43998;SDS011;51319;52.162;5.302;2023-08-07T04:54:52;21.75;;;5.20;;
43998;SDS011;51319;52.162;5.302;2023-08-07T04:57:19;22.02;;;3.85;;
43998;SDS011;51319;52.162;5.302;2023-08-07T04:59:46;18.98;;;3.92;;
43998;SDS011;51319;52.162;5.302;2023-08-07T05:02:13;15.50;;;3.67;;
43998;SDS011;51319;52.162;5.302;2023-08-07T05:04:40;16.83;;;4.28;;
43998;SDS011;51319;52.162;5.302;2023-08-07T05:07:08;18.80;;;4.78;;
43998;SDS011;51319;52.162;5.302;2023-08-07T05:09:36;23.55;;;4.97;;
43998;SDS011;51319;52.162;5.302;2023-08-07T05:12:03;20.45;;;4.45;;
43998;SDS011;51319;52.162;5.302;2023-08-07T05:14:30;19.05;;;4.78;;
43998;SDS011;51319;52.162;5.302;2023-08-07T05:16:57;17.25;;;3.50;;
43998;SDS011;51319;52.162;5.302;2023-08-07T05:19:26;17.30;;;3.65;;
43998;SDS011;51319;52.162;5.302;2023-08-07T05:21:53;11.75;;;4.40;;
43998;SDS011;51319;52.162;5.302;2023-08-07T05:24:20;13.02;;;3.90;;
43998;SDS011;51319;52.162;5.302;2023-08-07T05:26:47;14.73;;;3.55;;
43998;SDS011;51319;52.162;5.302;2023-08-07T05:29:14;17.45;;;3.30;;
43998;SDS011;51319;52.162;5.302;2023-08-07T05:31:41;13.70;;;3.35;;
43998;SDS011;51319;52.162;5.302;2023-08-07T05:34:08;15.75;;;3.35;;
43998;SDS011;51319;52.162;5.302;2023-08-07T05:36:35;20.83;;;3.33;;
43998;SDS011;51319;52.162;5.302;2023-08-07T05:39:02;11.90;;;3.60;;
43998;SDS011;51319;52.162;5.302;2023-08-07T05:41:30;23.13;;;4.22;;
43998;SDS011;51319;52.162;5.302;2023-08-07T05:43:57;16.33;;;3.55;;
43998;SDS011;51319;52.162;5.302;2023-08-07T05:46:24;24.92;;;4.22;;
43998;SDS011;51319;52.162;5.302;2023-08-07T05:48:51;17.08;;;4.13;;
43998;SDS011;51319;52.162;5.302;2023-08-07T05:51:20;17.90;;;3.92;;
43998;SDS011;51319;52.162;5.302;2023-08-07T05:53:47;19.38;;;4.85;;
43998;SDS011;51319;52.162;5.302;2023-08-07T05:56:16;27.05;;;9.10;;
43998;SDS011;51319;52.162;5.302;2023-08-07T05:58:44;17.13;;;4.07;;
43998;SDS011;51319;52.162;5.302;2023-08-07T06:01:11;20.48;;;4.30;;
43998;SDS011;51319;52.162;5.302;2023-08-07T06:03:38;15.38;;;3.90;;
43998;SDS011;51319;52.162;5.302;2023-08-07T06:06:05;17.80;;;3.40;;
43998;SDS011;51319;52.162;5.302;2023-08-07T06:08:32;15.68;;;3.40;;
43998;SDS011;51319;52.162;5.302;2023-08-07T06:11:00;18.55;;;5.03;;
43998;SDS011;51319;52.162;5.302;2023-08-07T06:13:29;15.02;;;4.18;;
43998;SDS011;51319;52.162;5.302;2023-08-07T06:16:01;20.23;;;4.03;;
43998;SDS011;51319;52.162;5.302;2023-08-07T06:18:28;15.73;;;3.78;;
43998;SDS011;51319;52.162;5.302;2023-08-07T06:20:56;12.40;;;3.78;;
43998;SDS011;51319;52.162;5.302;2023-08-07T06:23:23;15.82;;;3.28;;
43998;SDS011;51319;52.162;5.302;2023-08-07T06:25:50;15.50;;;4.05;;
43998;SDS011;51319;52.162;5.302;2023-08-07T06:28:24;18.30;;;4.28;;
43998;SDS011;51319;52.162;5.302;2023-08-07T06:30:51;16.88;;;4.93;;
43998;SDS011;51319;52.162;5.302;2023-08-07T06:33:21;18.88;;;5.22;;
43998;SDS011;51319;52.162;5.302;2023-08-07T06:35:48;13.35;;;3.90;;
43998;SDS011;51319;52.162;5.302;2023-08-07T06:38:18;16.65;;;3.55;;
43998;SDS011;51319;52.162;5.302;2023-08-07T06:40:45;24.83;;;5.07;;
43998;SDS011;51319;52.162;5.302;2023-08-07T06:43:12;25.52;;;4.28;;
43998;SDS011;51319;52.162;5.302;2023-08-07T06:45:39;18.20;;;3.92;;
43998;SDS011;51319;52.162;5.302;2023-08-07T06:48:06;18.10;;;3.65;;
43998;SDS011;51319;52.162;5.302;2023-08-07T06:50:33;17.92;;;3.85;;
43998;SDS011;51319;52.162;5.302;2023-08-07T06:53:00;20.10;;;3.78;;
43998;SDS011;51319;52.162;5.302;2023-08-07T06:55:27;11.55;;;3.55;;
43998;SDS011;51319;52.162;5.302;2023-08-07T06:57:54;13.38;;;3.92;;
43998;SDS011;51319;52.162;5.302;2023-08-07T07:00:22;14.98;;;3.83;;
43998;SDS011;51319;52.162;5.302;2023-08-07T07:02:49;13.20;;;3.70;;
43998;SDS011;51319;52.162;5.302;2023-08-07T07:05:16;14.90;;;4.57;;
43998;SDS011;51319;52.162;5.302;2023-08-07T07:07:46;19.80;;;4.57;;
43998;SDS011;51319;52.162;5.302;2023-08-07T07:10:13;15.85;;;3.92;;
43998;SDS011;51319;52.162;5.302;2023-08-07T07:12:40;16.65;;;3.70;;
43998;SDS011;51319;52.162;5.302;2023-08-07T07:15:09;15.25;;;3.65;;
43998;SDS011;51319;52.162;5.302;2023-08-07T07:17:36;16.23;;;4.25;;
43998;SDS011;51319;52.162;5.302;2023-08-07T07:20:04;12.82;;;3.63;;
43998;SDS011;51319;52.162;5.302;2023-08-07T07:22:31;16.42;;;4.05;;
43998;SDS011;51319;52.162;5.302;2023-08-07T07:24:58;18.98;;;3.17;;
43998;SDS011;51319;52.162;5.302;2023-08-07T07:27:26;12.10;;;3.60;;
43998;SDS011;51319;52.162;5.302;2023-08-07T07:29:53;15.60;;;3.63;;
43998;SDS011;51319;52.162;5.302;2023-08-07T07:32:21;9.93;;;3.38;;
43998;SDS011;51319;52.162;5.302;2023-08-07T07:34:48;15.50;;;3.78;;
43998;SDS011;51319;52.162;5.302;2023-08-07T07:37:17;13.25;;;3.92;;
43998;SDS011;51319;52.162;5.302;2023-08-07T07:39:45;13.57;;;3.60;;
43998;SDS011;51319;52.162;5.302;2023-08-07T07:42:12;11.80;;;3.38;;
43998;SDS011;51319;52.162;5.302;2023-08-07T07:44:39;12.52;;;3.30;;
43998;SDS011;51319;52.162;5.302;2023-08-07T07:47:07;16.60;;;3.78;;
43998;SDS011;51319;52.162;5.302;2023-08-07T07:49:38;15.02;;;3.80;;
43998;SDS011;51319;52.162;5.302;2023-08-07T07:52:06;16.75;;;4.60;;
43998;SDS011;51319;52.162;5.302;2023-08-07T07:54:34;18.63;;;4.25;;
43998;SDS011;51319;52.162;5.302;2023-08-07T07:57:02;15.48;;;3.20;;
43998;SDS011;51319;52.162;5.302;2023-08-07T07:59:29;11.90;;;3.03;;
43998;SDS011;51319;52.162;5.302;2023-08-07T08:01:56;16.30;;;3.20;;
43998;SDS011;51319;52.162;5.302;2023-08-07T08:04:24;19.27;;;3.78;;
43998;SDS011;51319;52.162;5.302;2023-08-07T08:06:51;17.45;;;3.63;;
43998;SDS011;51319;52.162;5.302;2023-08-07T08:09:18;14.85;;;3.92;;
43998;SDS011;51319;52.162;5.302;2023-08-07T08:11:45;15.88;;;3.65;;
43998;SDS011;51319;52.162;5.302;2023-08-07T08:14:12;18.67;;;3.45;;
43998;SDS011;51319;52.162;5.302;2023-08-07T08:16:39;17.63;;;4.00;;
43998;SDS011;51319;52.162;5.302;2023-08-07T08:19:06;13.45;;;2.95;;
43998;SDS011;51319;52.162;5.302;2023-08-07T08:21:36;16.83;;;3.42;;
43998;SDS011;51319;52.162;5.302;2023-08-07T08:24:03;11.60;;;3.03;;
43998;SDS011;51319;52.162;5.302;2023-08-07T08:26:31;13.60;;;3.28;;
43998;SDS011;51319;52.162;5.302;2023-08-07T08:28:58;13.43;;;3.13;;
43998;SDS011;51319;52.162;5.302;2023-08-07T08:31:25;13.27;;;2.97;;
43998;SDS011;51319;52.162;5.302;2023-08-07T08:33:52;11.48;;;3.35;;
43998;SDS011;51319;52.162;5.302;2023-08-07T08:36:20;14.77;;;3.15;;
43998;SDS011;51319;52.162;5.302;2023-08-07T08:38:48;8.43;;;2.60;;
43998;SDS011;51319;52.162;5.302;2023-08-07T08:41:19;14.75;;;3.20;;
43998;SDS011;51319;52.162;5.302;2023-08-07T08:43:47;14.48;;;2.83;;
43998;SDS011;51319;52.162;5.302;2023-08-07T08:46:17;18.55;;;3.05;;
43998;SDS011;51319;52.162;5.302;2023-08-07T08:48:50;9.73;;;2.65;;
43998;SDS011;51319;52.162;5.302;2023-08-07T08:51:18;11.77;;;3.15;;
43998;SDS011;51319;52.162;5.302;2023-08-07T08:53:48;9.87;;;2.50;;
43998;SDS011;51319;52.162;5.302;2023-08-07T08:56:16;18.00;;;7.57;;
43998;SDS011;51319;52.162;5.302;2023-08-07T08:58:44;14.65;;;4.07;;
43998;SDS011;51319;52.162;5.302;2023-08-07T09:01:11;17.30;;;6.55;;
43998;SDS011;51319;52.162;5.302;2023-08-07T09:03:39;14.50;;;3.33;;
43998;SDS011;51319;52.162;5.302;2023-08-07T09:06:06;9.48;;;2.58;;
43998;SDS011;51319;52.162;5.302;2023-08-07T09:08:35;13.25;;;3.63;;
43998;SDS011;51319;52.162;5.302;2023-08-07T09:11:04;9.02;;;2.72;;
43998;SDS011;51319;52.162;5.302;2023-08-07T09:13:32;11.88;;;3.67;;
43998;SDS011;51319;52.162;5.302;2023-08-07T09:16:03;13.70;;;3.25;;
43998;SDS011;51319;52.162;5.302;2023-08-07T09:18:33;13.63;;;3.13;;
43998;SDS011;51319;52.162;5.302;2023-08-07T09:21:01;10.27;;;3.30;;
43998;SDS011;51319;52.162;5.302;2023-08-07T09:23:28;12.68;;;2.47;;
43998;SDS011;51319;52.162;5.302;2023-08-07T09:25:58;15.05;;;2.92;;
43998;SDS011;51319;52.162;5.302;2023-08-07T09:28:27;13.05;;;2.83;;
43998;SDS011;51319;52.162;5.302;2023-08-07T09:30:56;11.00;;;2.78;;
43998;SDS011;51319;52.162;5.302;2023-08-07T09:33:28;12.55;;;3.05;;
43998;SDS011;51319;52.162;5.302;2023-08-07T09:35:57;11.70;;;2.70;;
43998;SDS011;51319;52.162;5.302;2023-08-07T09:38:29;13.82;;;2.78;;
43998;SDS011;51319;52.162;5.302;2023-08-07T09:40:59;12.20;;;2.78;;
43998;SDS011;51319;52.162;5.302;2023-08-07T09:43:26;14.15;;;2.67;;
43998;SDS011;51319;52.162;5.302;2023-08-07T09:46:05;10.95;;;2.50;;
43998;SDS011;51319;52.162;5.302;2023-08-07T09:48:43;10.15;;;2.60;;
43998;SDS011;51319;52.162;5.302;2023-08-07T09:51:10;8.63;;;2.05;;
43998;SDS011;51319;52.162;5.302;2023-08-07T09:53:38;10.45;;;2.58;;
43998;SDS011;51319;52.162;5.302;2023-08-07T09:56:05;10.75;;;2.75;;
43998;SDS011;51319;52.162;5.302;2023-08-07T09:58:32;14.40;;;2.65;;
43998;SDS011;51319;52.162;5.302;2023-08-07T10:01:00;11.90;;;2.58;;
43998;SDS011;51319;52.162;5.302;2023-08-07T10:03:30;15.70;;;2.95;;
43998;SDS011;51319;52.162;5.302;2023-08-07T10:05:58;15.48;;;2.90;;
43998;SDS011;51319;52.162;5.302;2023-08-07T10:08:26;11.57;;;2.80;;
43998;SDS011;51319;52.162;5.302;2023-08-07T10:10:55;15.02;;;3.20;;
43998;SDS011;51319;52.162;5.302;2023-08-07T10:13:22;9.75;;;2.70;;
43998;SDS011;51319;52.162;5.302;2023-08-07T10:18:31;8.45;;;2.30;;
43998;SDS011;51319;52.162;5.302;2023-08-07T10:20:58;6.60;;;2.28;;
43998;SDS011;51319;52.162;5.302;2023-08-07T10:23:28;10.80;;;2.65;;
43998;SDS011;51319;52.162;5.302;2023-08-07T10:26:01;11.27;;;2.10;;
43998;SDS011;51319;52.162;5.302;2023-08-07T10:28:35;10.30;;;2.28;;
43998;SDS011;51319;52.162;5.302;2023-08-07T10:33:35;11.30;;;3.50;;
43998;SDS011;51319;52.162;5.302;2023-08-07T10:36:07;11.55;;;2.83;;
43998;SDS011;51319;52.162;5.302;2023-08-07T10:38:36;14.65;;;2.45;;
43998;SDS011;51319;52.162;5.302;2023-08-07T10:46:09;10.75;;;3.40;;
43998;SDS011;51319;52.162;5.302;2023-08-07T10:48:56;11.95;;;2.53;;
43998;SDS011;51319;52.162;5.302;2023-08-07T10:51:27;12.23;;;2.60;;
43998;SDS011;51319;52.162;5.302;2023-08-07T10:53:59;8.45;;;2.00;;
43998;SDS011;51319;52.162;5.302;2023-08-07T10:56:35;13.20;;;2.90;;
43998;SDS011;51319;52.162;5.302;2023-08-07T10:59:11;10.57;;;2.53;;
43998;SDS011;51319;52.162;5.302;2023-08-07T11:01:41;9.10;;;2.30;;
43998;SDS011;51319;52.162;5.302;2023-08-07T11:04:09;8.57;;;2.10;;
43998;SDS011;51319;52.162;5.302;2023-08-07T11:06:41;8.73;;;2.40;;
43998;SDS011;51319;52.162;5.302;2023-08-07T11:11:47;16.08;;;2.35;;
43998;SDS011;51319;52.162;5.302;2023-08-07T11:14:16;8.93;;;1.73;;
43998;SDS011;51319;52.162;5.302;2023-08-07T11:16:47;7.18;;;2.10;;
43998;SDS011;51319;52.162;5.302;2023-08-07T11:19:16;10.25;;;2.45;;
43998;SDS011;51319;52.162;5.302;2023-08-07T11:21:44;7.25;;;2.25;;
43998;SDS011;51319;52.162;5.302;2023-08-07T11:24:12;10.07;;;2.53;;
43998;SDS011;51319;52.162;5.302;2023-08-07T11:26:42;10.75;;;2.30;;
43998;SDS011;51319;52.162;5.302;2023-08-07T11:29:10;7.45;;;2.40;;
43998;SDS011;51319;52.162;5.302;2023-08-07T11:31:37;10.10;;;2.25;;
43998;SDS011;51319;52.162;5.302;2023-08-07T11:34:04;6.97;;;1.98;;
43998;SDS011;51319;52.162;5.302;2023-08-07T11:36:31;12.18;;;2.70;;
43998;SDS011;51319;52.162;5.302;2023-08-07T11:39:01;12.35;;;2.42;;
43998;SDS011;51319;52.162;5.302;2023-08-07T11:41:31;14.90;;;2.70;;
43998;SDS011;51319;52.162;5.302;2023-08-07T11:43:58;10.65;;;2.53;;
43998;SDS011;51319;52.162;5.302;2023-08-07T11:46:26;6.43;;;2.20;;
43998;SDS011;51319;52.162;5.302;2023-08-07T11:48:55;9.52;;;2.50;;
43998;SDS011;51319;52.162;5.302;2023-08-07T11:51:23;7.55;;;2.33;;
43998;SDS011;51319;52.162;5.302;2023-08-07T11:53:50;11.10;;;2.42;;
43998;SDS011;51319;52.162;5.302;2023-08-07T11:56:23;8.07;;;2.47;;
43998;SDS011;51319;52.162;5.302;2023-08-07T11:58:51;8.35;;;2.20;;
43998;SDS011;51319;52.162;5.302;2023-08-07T12:01:20;7.00;;;2.08;;
43998;SDS011;51319;52.162;5.302;2023-08-07T12:06:37;11.30;;;2.60;;
43998;SDS011;51319;52.162;5.302;2023-08-07T12:09:18;8.57;;;2.15;;
43998;SDS011;51319;52.162;5.302;2023-08-07T12:11:45;5.72;;;2.33;;
43998;SDS011;51319;52.162;5.302;2023-08-07T12:14:13;7.82;;;1.80;;
43998;SDS011;51319;52.162;5.302;2023-08-07T12:16:44;3.60;;;1.25;;
43998;SDS011;51319;52.162;5.302;2023-08-07T12:19:15;5.55;;;2.08;;
43998;SDS011;51319;52.162;5.302;2023-08-07T12:21:42;4.15;;;1.30;;
43998;SDS011;51319;52.162;5.302;2023-08-07T12:24:09;7.30;;;1.73;;
43998;SDS011;51319;52.162;5.302;2023-08-07T12:26:39;5.85;;;2.63;;
43998;SDS011;51319;52.162;5.302;2023-08-07T12:29:06;10.52;;;1.70;;
43998;SDS011;51319;52.162;5.302;2023-08-07T12:31:35;7.90;;;1.60;;
43998;SDS011;51319;52.162;5.302;2023-08-07T12:34:05;4.47;;;1.90;;
43998;SDS011;51319;52.162;5.302;2023-08-07T12:36:35;4.97;;;1.60;;
43998;SDS011;51319;52.162;5.302;2023-08-07T12:39:03;3.63;;;1.40;;
43998;SDS011;51319;52.162;5.302;2023-08-07T12:41:32;4.38;;;1.70;;
43998;SDS011;51319;52.162;5.302;2023-08-07T12:44:02;8.37;;;2.07;;
43998;SDS011;51319;52.162;5.302;2023-08-07T12:46:30;3.30;;;1.25;;
43998;SDS011;51319;52.162;5.302;2023-08-07T12:48:57;3.42;;;1.40;;
43998;SDS011;51319;52.162;5.302;2023-08-07T12:51:25;8.57;;;1.75;;
43998;SDS011;51319;52.162;5.302;2023-08-07T12:53:54;9.30;;;1.90;;
43998;SDS011;51319;52.162;5.302;2023-08-07T12:56:21;2.40;;;1.00;;
43998;SDS011;51319;52.162;5.302;2023-08-07T12:58:48;4.30;;;1.42;;
43998;SDS011;51319;52.162;5.302;2023-08-07T13:01:18;5.30;;;1.58;;
43998;SDS011;51319;52.162;5.302;2023-08-07T13:03:47;9.02;;;1.73;;
43998;SDS011;51319;52.162;5.302;2023-08-07T13:06:14;4.35;;;1.38;;
43998;SDS011;51319;52.162;5.302;2023-08-07T13:08:42;6.22;;;1.30;;
43998;SDS011;51319;52.162;5.302;2023-08-07T13:11:09;6.80;;;1.77;;
43998;SDS011;51319;52.162;5.302;2023-08-07T13:13:36;9.80;;;1.73;;
43998;SDS011;51319;52.162;5.302;2023-08-07T13:16:05;6.40;;;1.55;;
43998;SDS011;51319;52.162;5.302;2023-08-07T13:18:34;3.42;;;1.10;;
43998;SDS011;51319;52.162;5.302;2023-08-07T13:21:02;5.35;;;1.23;;
43998;SDS011;51319;52.162;5.302;2023-08-07T13:23:31;2.63;;;1.30;;
43998;SDS011;51319;52.162;5.302;2023-08-07T13:26:01;4.72;;;1.45;;
43998;SDS011;51319;52.162;5.302;2023-08-07T13:28:28;7.32;;;1.58;;
43998;SDS011;51319;52.162;5.302;2023-08-07T13:30:58;6.63;;;3.38;;
43998;SDS011;51319;52.162;5.302;2023-08-07T13:33:25;5.13;;;1.92;;
43998;SDS011;51319;52.162;5.302;2023-08-07T13:35:54;3.97;;;1.63;;
43998;SDS011;51319;52.162;5.302;2023-08-07T13:38:21;7.43;;;1.83;;
43998;SDS011;51319;52.162;5.302;2023-08-07T13:40:48;7.72;;;3.17;;
43998;SDS011;51319;52.162;5.302;2023-08-07T13:43:15;4.72;;;1.02;;
43998;SDS011;51319;52.162;5.302;2023-08-07T13:45:42;4.22;;;1.38;;
43998;SDS011;51319;52.162;5.302;2023-08-07T13:48:09;5.18;;;1.42;;
43998;SDS011;51319;52.162;5.302;2023-08-07T13:50:36;5.93;;;1.30;;
43998;SDS011;51319;52.162;5.302;2023-08-07T13:53:05;7.97;;;1.30;;
43998;SDS011;51319;52.162;5.302;2023-08-07T13:55:41;4.50;;;1.30;;
43998;SDS011;51319;52.162;5.302;2023-08-07T13:58:09;4.55;;;1.30;;
43998;SDS011;51319;52.162;5.302;2023-08-07T14:00:36;8.48;;;1.50;;
43998;SDS011;51319;52.162;5.302;2023-08-07T14:03:06;6.43;;;1.30;;
43998;SDS011;51319;52.162;5.302;2023-08-07T14:05:33;3.75;;;1.25;;
43998;SDS011;51319;52.162;5.302;2023-08-07T14:08:00;3.97;;;0.88;;
43998;SDS011;51319;52.162;5.302;2023-08-07T14:10:30;5.50;;;1.13;;
43998;SDS011;51319;52.162;5.302;2023-08-07T14:12:57;3.70;;;1.23;;
43998;SDS011;51319;52.162;5.302;2023-08-07T14:15:24;5.22;;;1.25;;
43998;SDS011;51319;52.162;5.302;2023-08-07T14:17:52;3.83;;;1.13;;
43998;SDS011;51319;52.162;5.302;2023-08-07T14:20:20;4.72;;;1.40;;
43998;SDS011;51319;52.162;5.302;2023-08-07T14:53:28;4.78;;;1.30;;
43998;SDS011;51319;52.162;5.302;2023-08-07T15:06:44;4.63;;;1.55;;
43998;SDS011;51319;52.162;5.302;2023-08-07T15:50:28;4.95;;;1.60;;
43998;SDS011;51319;52.162;5.302;2023-08-07T15:52:57;2.60;;;1.20;;
43998;SDS011;51319;52.162;5.302;2023-08-07T15:55:26;4.13;;;1.42;;
43998;SDS011;51319;52.162;5.302;2023-08-07T15:57:54;2.10;;;1.42;;
43998;SDS011;51319;52.162;5.302;2023-08-07T16:00:21;4.55;;;1.35;;
43998;SDS011;51319;52.162;5.302;2023-08-07T16:02:52;1.73;;;1.20;;
43998;SDS011;51319;52.162;5.302;2023-08-07T16:05:19;3.50;;;1.23;;
43998;SDS011;51319;52.162;5.302;2023-08-07T16:07:47;3.13;;;1.55;;
43998;SDS011;51319;52.162;5.302;2023-08-07T16:10:19;2.58;;;1.25;;
43998;SDS011;51319;52.162;5.302;2023-08-07T16:12:46;4.13;;;1.40;;
43998;SDS011;51319;52.162;5.302;2023-08-07T16:15:13;4.18;;;1.48;;
43998;SDS011;51319;52.162;5.302;2023-08-07T16:17:53;2.58;;;1.20;;
43998;SDS011;51319;52.162;5.302;2023-08-07T16:20:24;2.63;;;1.48;;
43998;SDS011;51319;52.162;5.302;2023-08-07T16:22:51;4.55;;;1.30;;
43998;SDS011;51319;52.162;5.302;2023-08-07T16:25:18;2.80;;;1.20;;
43998;SDS011;51319;52.162;5.302;2023-08-07T16:27:45;5.50;;;1.60;;
43998;SDS011;51319;52.162;5.302;2023-08-07T16:30:14;4.45;;;1.38;;
43998;SDS011;51319;52.162;5.302;2023-08-07T16:32:41;3.05;;;1.45;;